Time;durP1;ratioP1;P1;durP2;ratioP2;P2;SDS_P1;SDS_P2;PMS_P1;PMS_P2;Temp;Humidity;BMP_temperature;BMP_pressure;BME280_temperature;BME280_humidity;BME280_pressure;Samples;Min_cycle;Max_cycle;Signal;HPM_P1;HPM_P2
2019/06/23 00:00:48;;;;;;;13.85;12.45;;;;;;;16.26;100;95261.99;;;;
2019/06/23 00:01:49;;;;;;;13.85;12.45;;;;;;;16.26;100;95261.99;;;;
2019/06/23 00:02:50;;;;;;;13.85;12.45;;;;;;;16.26;100;95261.99;;;;
2019/06/23 00:03:51;;;;;;;13.85;12.45;;;;;;;16.26;100;95261.99;;;;
2019/06/23 00:04:52;;;;;;;13.85;12.45;;;;;;;16.26;100;95261.99;;;;
2019/06/23 00:05:53;;;;;;;13.85;12.45;;;;;;;16.26;100;95261.99;;;;
2019/06/23 00:06:54;;;;;;;13.55;12.15;;;;;;;16.14;100;95279.13;;;;
2019/06/23 00:07:55;;;;;;;13.55;12.15;;;;;;;16.14;100;95279.13;;;;
2019/06/23 00:08:56;;;;;;;13.55;12.15;;;;;;;16.14;100;95279.13;;;;
2019/06/23 00:09:57;;;;;;;13.55;12.15;;;;;;;16.14;100;95279.13;;;;
2019/06/23 00:10:58;;;;;;;13.55;12.15;;;;;;;16.14;100;95279.13;;;;
2019/06/23 00:11:59;;;;;;;13.55;12.15;;;;;;;16.14;100;95279.13;;;;
2019/06/23 00:13:01;;;;;;;13.55;12.15;;;;;;;16.14;100;95279.13;;;;
2019/06/23 00:14:02;;;;;;;13.55;12.15;;;;;;;16.14;100;95279.13;;;;
2019/06/23 00:15:03;;;;;;;13.55;12.15;;;;;;;16.14;100;95279.13;;;;
2019/06/23 00:16:04;;;;;;;13.55;12.15;;;;;;;16.14;100;95279.13;;;;
2019/06/23 00:17:05;;;;;;;13.55;12.15;;;;;;;16.14;100;95279.13;;;;
2019/06/23 00:18:06;;;;;;;14.6;13.15;;;;;;;16.05;100;95279.38;;;;
2019/06/23 00:19:07;;;;;;;14.6;13.15;;;;;;;16.05;100;95279.38;;;;
2019/06/23 00:20:09;;;;;;;14.6;13.15;;;;;;;16.05;100;95279.38;;;;
2019/06/23 00:21:10;;;;;;;14.6;13.15;;;;;;;16.05;100;95279.38;;;;
2019/06/23 00:22:11;;;;;;;14.6;13.15;;;;;;;16.05;100;95279.38;;;;
2019/06/23 00:23:12;;;;;;;14.6;13.15;;;;;;;16.05;100;95279.38;;;;
2019/06/23 00:24:13;;;;;;;14.6;13.15;;;;;;;16.05;100;95279.38;;;;
2019/06/23 00:25:14;;;;;;;14.6;13.15;;;;;;;16.05;100;95279.38;;;;
2019/06/23 00:26:17;;;;;;;14.6;13.15;;;;;;;16.05;100;95279.38;;;;
2019/06/23 00:27:18;;;;;;;14.6;13.15;;;;;;;16.05;100;95279.38;;;;
2019/06/23 00:28:19;;;;;;;18.15;16.2;;;;;;;15.9;100;95271.61;;;;
2019/06/23 00:29:20;;;;;;;18.15;16.2;;;;;;;15.9;100;95271.61;;;;
2019/06/23 00:30:22;;;;;;;18.15;16.2;;;;;;;15.9;100;95271.61;;;;
2019/06/23 00:31:36;;;;;;;18.15;16.2;;;;;;;15.9;100;95271.61;;;;
2019/06/23 00:32:38;;;;;;;18.15;16.2;;;;;;;15.9;100;95271.61;;;;
2019/06/23 00:33:39;;;;;;;18.15;16.2;;;;;;;15.9;100;95271.61;;;;
2019/06/23 00:34:40;;;;;;;18.15;16.2;;;;;;;15.9;100;95271.61;;;;
2019/06/23 00:35:41;;;;;;;18.15;16.2;;;;;;;15.9;100;95271.61;;;;
2019/06/23 00:36:42;;;;;;;18.15;16.2;;;;;;;15.9;100;95271.61;;;;
2019/06/23 00:37:43;;;;;;;18.15;16.2;;;;;;;15.9;100;95271.61;;;;
2019/06/23 00:38:44;;;;;;;28.25;22.9;;;;;;;15.89;100;95266.82;;;;
2019/06/23 00:39:45;;;;;;;28.25;22.9;;;;;;;15.89;100;95266.82;;;;
2019/06/23 00:40:46;;;;;;;28.25;22.9;;;;;;;15.89;100;95266.82;;;;
2019/06/23 00:41:47;;;;;;;28.25;22.9;;;;;;;15.89;100;95266.82;;;;
2019/06/23 00:42:48;;;;;;;28.25;22.9;;;;;;;15.89;100;95266.82;;;;
2019/06/23 00:43:50;;;;;;;28.25;22.9;;;;;;;15.89;100;95266.82;;;;
2019/06/23 00:44:51;;;;;;;28.25;22.9;;;;;;;15.89;100;95266.82;;;;
2019/06/23 00:45:52;;;;;;;28.25;22.9;;;;;;;15.89;100;95266.82;;;;
2019/06/23 00:46:53;;;;;;;28.25;22.9;;;;;;;15.89;100;95266.82;;;;
2019/06/23 00:47:54;;;;;;;28.25;22.9;;;;;;;15.89;100;95266.82;;;;
2019/06/23 00:48:55;;;;;;;28.25;22.9;;;;;;;15.89;100;95266.82;;;;
2019/06/23 00:49:56;;;;;;;25.15;22;;;;;;;15.75;100;95269.78;;;;
2019/06/23 00:50:57;;;;;;;25.15;22;;;;;;;15.75;100;95269.78;;;;
2019/06/23 00:51:58;;;;;;;25.15;22;;;;;;;15.75;100;95269.78;;;;
2019/06/23 00:52:59;;;;;;;25.15;22;;;;;;;15.75;100;95269.78;;;;
2019/06/23 00:54:01;;;;;;;25.15;22;;;;;;;15.75;100;95269.78;;;;
2019/06/23 00:55:02;;;;;;;25.15;22;;;;;;;15.75;100;95269.78;;;;
2019/06/23 00:56:03;;;;;;;25.15;22;;;;;;;15.75;100;95269.78;;;;
2019/06/23 00:57:05;;;;;;;25.15;22;;;;;;;15.75;100;95269.78;;;;
2019/06/23 00:58:06;;;;;;;25.15;22;;;;;;;15.75;100;95269.78;;;;
2019/06/23 00:59:07;;;;;;;25.15;22;;;;;;;15.75;100;95269.78;;;;
2019/06/23 01:00:08;;;;;;;26;22.8;;;;;;;15.67;100;95283.36;;;;
2019/06/23 01:01:26;;;;;;;26;22.8;;;;;;;15.67;100;95283.36;;;;
2019/06/23 01:02:36;;;;;;;26;22.8;;;;;;;15.67;100;95283.36;;;;
2019/06/23 01:03:37;;;;;;;26;22.8;;;;;;;15.67;100;95283.36;;;;
2019/06/23 01:04:38;;;;;;;26;22.8;;;;;;;15.67;100;95283.36;;;;
2019/06/23 01:05:40;;;;;;;26;22.8;;;;;;;15.67;100;95283.36;;;;
2019/06/23 01:06:41;;;;;;;26;22.8;;;;;;;15.67;100;95283.36;;;;
2019/06/23 01:07:42;;;;;;;26;22.8;;;;;;;15.67;100;95283.36;;;;
2019/06/23 01:08:43;;;;;;;26;22.8;;;;;;;15.67;100;95283.36;;;;
2019/06/23 01:09:44;;;;;;;26;22.8;;;;;;;15.67;100;95283.36;;;;
2019/06/23 01:10:46;;;;;;;30.85;24.5;;;;;;;15.63;100;95272.19;;;;
2019/06/23 01:11:54;;;;;;;30.85;24.5;;;;;;;15.63;100;95272.19;;;;
2019/06/23 01:12:55;;;;;;;30.85;24.5;;;;;;;15.63;100;95272.19;;;;
2019/06/23 01:13:56;;;;;;;30.85;24.5;;;;;;;15.63;100;95272.19;;;;
2019/06/23 01:14:57;;;;;;;30.85;24.5;;;;;;;15.63;100;95272.19;;;;
2019/06/23 01:15:58;;;;;;;30.85;24.5;;;;;;;15.63;100;95272.19;;;;
2019/06/23 01:16:59;;;;;;;30.85;24.5;;;;;;;15.63;100;95272.19;;;;
2019/06/23 01:18:00;;;;;;;30.85;24.5;;;;;;;15.63;100;95272.19;;;;
2019/06/23 01:19:02;;;;;;;30.85;24.5;;;;;;;15.63;100;95272.19;;;;
2019/06/23 01:20:03;;;;;;;30.85;24.5;;;;;;;15.63;100;95272.19;;;;
2019/06/23 01:21:05;;;;;;;29.7;25.75;;;;;;;15.77;100;95275.66;;;;
2019/06/23 01:22:06;;;;;;;29.7;25.75;;;;;;;15.77;100;95275.66;;;;
2019/06/23 01:23:07;;;;;;;29.7;25.75;;;;;;;15.77;100;95275.66;;;;
2019/06/23 01:24:08;;;;;;;29.7;25.75;;;;;;;15.77;100;95275.66;;;;
2019/06/23 01:25:09;;;;;;;29.7;25.75;;;;;;;15.77;100;95275.66;;;;
2019/06/23 01:26:11;;;;;;;29.7;25.75;;;;;;;15.77;100;95275.66;;;;
2019/06/23 01:27:12;;;;;;;29.7;25.75;;;;;;;15.77;100;95275.66;;;;
2019/06/23 01:28:13;;;;;;;29.7;25.75;;;;;;;15.77;100;95275.66;;;;
2019/06/23 01:29:14;;;;;;;29.7;25.75;;;;;;;15.77;100;95275.66;;;;
2019/06/23 01:30:15;;;;;;;29.7;25.75;;;;;;;15.77;100;95275.66;;;;
2019/06/23 01:31:18;;;;;;;29.7;25.75;;;;;;;15.77;100;95275.66;;;;
2019/06/23 01:32:19;;;;;;;33.3;27;;;;;;;15.81;100;95280.44;;;;
2019/06/23 01:33:21;;;;;;;33.3;27;;;;;;;15.81;100;95280.44;;;;
2019/06/23 01:34:22;;;;;;;33.3;27;;;;;;;15.81;100;95280.44;;;;
2019/06/23 01:35:23;;;;;;;33.3;27;;;;;;;15.81;100;95280.44;;;;
2019/06/23 01:36:24;;;;;;;33.3;27;;;;;;;15.81;100;95280.44;;;;
2019/06/23 01:37:25;;;;;;;33.3;27;;;;;;;15.81;100;95280.44;;;;
2019/06/23 01:38:27;;;;;;;33.3;27;;;;;;;15.81;100;95280.44;;;;
2019/06/23 01:39:28;;;;;;;33.3;27;;;;;;;15.81;100;95280.44;;;;
2019/06/23 01:40:29;;;;;;;33.3;27;;;;;;;15.81;100;95280.44;;;;
2019/06/23 01:41:31;;;;;;;33.3;27;;;;;;;15.81;100;95280.44;;;;
2019/06/23 01:42:32;;;;;;;31.24999;26.05;;;;;;;15.88;100;95286.03;;;;
2019/06/23 01:43:33;;;;;;;31.24999;26.05;;;;;;;15.88;100;95286.03;;;;
2019/06/23 01:44:35;;;;;;;31.24999;26.05;;;;;;;15.88;100;95286.03;;;;
2019/06/23 01:45:36;;;;;;;31.24999;26.05;;;;;;;15.88;100;95286.03;;;;
2019/06/23 01:46:37;;;;;;;31.24999;26.05;;;;;;;15.88;100;95286.03;;;;
2019/06/23 01:47:38;;;;;;;31.24999;26.05;;;;;;;15.88;100;95286.03;;;;
2019/06/23 01:48:39;;;;;;;31.24999;26.05;;;;;;;15.88;100;95286.03;;;;
2019/06/23 01:49:41;;;;;;;31.24999;26.05;;;;;;;15.88;100;95286.03;;;;
2019/06/23 01:50:42;;;;;;;31.24999;26.05;;;;;;;15.88;100;95286.03;;;;
2019/06/23 01:51:43;;;;;;;31.24999;26.05;;;;;;;15.88;100;95286.03;;;;
2019/06/23 01:52:44;;;;;;;24.15;21.45;;;;;;;15.88;100;95279.64;;;;
2019/06/23 01:53:45;;;;;;;24.15;21.45;;;;;;;15.88;100;95279.64;;;;
2019/06/23 01:54:46;;;;;;;24.15;21.45;;;;;;;15.88;100;95279.64;;;;
2019/06/23 01:55:47;;;;;;;24.15;21.45;;;;;;;15.88;100;95279.64;;;;
2019/06/23 01:56:49;;;;;;;24.15;21.45;;;;;;;15.88;100;95279.64;;;;
2019/06/23 01:57:50;;;;;;;24.15;21.45;;;;;;;15.88;100;95279.64;;;;
2019/06/23 01:58:51;;;;;;;24.15;21.45;;;;;;;15.88;100;95279.64;;;;
2019/06/23 01:59:52;;;;;;;24.15;21.45;;;;;;;15.88;100;95279.64;;;;
2019/06/23 02:00:53;;;;;;;24.15;21.45;;;;;;;15.88;100;95279.64;;;;
2019/06/23 02:01:54;;;;;;;24.15;21.45;;;;;;;15.88;100;95279.64;;;;
2019/06/23 02:02:55;;;;;;;24.15;21.45;;;;;;;15.88;100;95279.64;;;;
2019/06/23 02:03:57;;;;;;;20.9;18.75;;;;;;;15.91;100;95275.54;;;;
2019/06/23 02:04:58;;;;;;;20.9;18.75;;;;;;;15.91;100;95275.54;;;;
2019/06/23 02:05:59;;;;;;;20.9;18.75;;;;;;;15.91;100;95275.54;;;;
2019/06/23 02:07:01;;;;;;;20.9;18.75;;;;;;;15.91;100;95275.54;;;;
2019/06/23 02:08:02;;;;;;;20.9;18.75;;;;;;;15.91;100;95275.54;;;;
2019/06/23 02:09:04;;;;;;;20.9;18.75;;;;;;;15.91;100;95275.54;;;;
2019/06/23 02:10:06;;;;;;;20.9;18.75;;;;;;;15.91;100;95275.54;;;;
2019/06/23 02:11:08;;;;;;;20.9;18.75;;;;;;;15.91;100;95275.54;;;;
2019/06/23 02:12:09;;;;;;;20.9;18.75;;;;;;;15.91;100;95275.54;;;;
2019/06/23 02:13:10;;;;;;;20.9;18.75;;;;;;;15.91;100;95275.54;;;;
2019/06/23 02:14:11;;;;;;;20.4;18.25;;;;;;;15.87;100;95275.27;;;;
2019/06/23 02:15:12;;;;;;;20.4;18.25;;;;;;;15.87;100;95275.27;;;;
2019/06/23 02:16:13;;;;;;;20.4;18.25;;;;;;;15.87;100;95275.27;;;;
2019/06/23 02:17:15;;;;;;;20.4;18.25;;;;;;;15.87;100;95275.27;;;;
2019/06/23 02:18:16;;;;;;;20.4;18.25;;;;;;;15.87;100;95275.27;;;;
2019/06/23 02:19:17;;;;;;;20.4;18.25;;;;;;;15.87;100;95275.27;;;;
2019/06/23 02:20:21;;;;;;;20.4;18.25;;;;;;;15.87;100;95275.27;;;;
2019/06/23 02:21:23;;;;;;;20.4;18.25;;;;;;;15.87;100;95275.27;;;;
2019/06/23 02:22:26;;;;;;;20.4;18.25;;;;;;;15.87;100;95275.27;;;;
2019/06/23 02:23:27;;;;;;;20.4;18.25;;;;;;;15.87;100;95275.27;;;;
2019/06/23 02:24:28;;;;;;;18.95;16.9;;;;;;;15.9;100;95282.09;;;;
2019/06/23 02:25:29;;;;;;;18.95;16.9;;;;;;;15.9;100;95282.09;;;;
2019/06/23 02:26:31;;;;;;;18.95;16.9;;;;;;;15.9;100;95282.09;;;;
2019/06/23 02:27:32;;;;;;;18.95;16.9;;;;;;;15.9;100;95282.09;;;;
2019/06/23 02:28:33;;;;;;;18.95;16.9;;;;;;;15.9;100;95282.09;;;;
2019/06/23 02:29:34;;;;;;;18.95;16.9;;;;;;;15.9;100;95282.09;;;;
2019/06/23 02:30:35;;;;;;;18.95;16.9;;;;;;;15.9;100;95282.09;;;;
2019/06/23 02:31:37;;;;;;;18.95;16.9;;;;;;;15.9;100;95282.09;;;;
2019/06/23 02:32:38;;;;;;;18.95;16.9;;;;;;;15.9;100;95282.09;;;;
2019/06/23 02:33:39;;;;;;;18.95;16.9;;;;;;;15.9;100;95282.09;;;;
2019/06/23 02:34:40;;;;;;;18.95;16.9;;;;;;;15.9;100;95282.09;;;;
2019/06/23 02:35:41;;;;;;;16.6;14.8;;;;;;;15.84;100;95292.14;;;;
2019/06/23 02:36:42;;;;;;;16.6;14.8;;;;;;;15.84;100;95292.14;;;;
2019/06/23 02:37:44;;;;;;;16.6;14.8;;;;;;;15.84;100;95292.14;;;;
2019/06/23 02:38:45;;;;;;;16.6;14.8;;;;;;;15.84;100;95292.14;;;;
2019/06/23 02:39:46;;;;;;;16.6;14.8;;;;;;;15.84;100;95292.14;;;;
2019/06/23 02:40:47;;;;;;;16.6;14.8;;;;;;;15.84;100;95292.14;;;;
2019/06/23 02:41:48;;;;;;;16.6;14.8;;;;;;;15.84;100;95292.14;;;;
2019/06/23 02:42:49;;;;;;;16.6;14.8;;;;;;;15.84;100;95292.14;;;;
2019/06/23 02:43:50;;;;;;;16.6;14.8;;;;;;;15.84;100;95292.14;;;;
2019/06/23 02:44:52;;;;;;;16.6;14.8;;;;;;;15.84;100;95292.14;;;;
2019/06/23 02:45:56;;;;;;;14.9;13.3;;;;;;;15.84;100;95289.84;;;;
2019/06/23 02:48:04;;;;;;;14.9;13.3;;;;;;;15.84;100;95289.84;;;;
2019/06/23 02:49:07;;;;;;;14.9;13.3;;;;;;;15.84;100;95289.84;;;;
2019/06/23 02:50:14;;;;;;;14.9;13.3;;;;;;;15.84;100;95289.84;;;;
2019/06/23 02:51:22;;;;;;;14.9;13.3;;;;;;;15.84;100;95289.84;;;;
2019/06/23 02:52:27;;;;;;;14.9;13.3;;;;;;;15.84;100;95289.84;;;;
2019/06/23 02:53:34;;;;;;;14.9;13.3;;;;;;;15.84;100;95289.84;;;;
2019/06/23 02:54:41;;;;;;;14.9;13.3;;;;;;;15.84;100;95289.84;;;;
2019/06/23 02:55:48;;;;;;;14.9;13.3;;;;;;;15.84;100;95289.84;;;;
2019/06/23 02:56:52;;;;;;;15.8;14.25;;;;;;;15.76;100;95293.59;;;;
2019/06/23 02:57:59;;;;;;;15.8;14.25;;;;;;;15.76;100;95293.59;;;;
2019/06/23 02:59:01;;;;;;;15.8;14.25;;;;;;;15.76;100;95293.59;;;;
2019/06/23 03:00:03;;;;;;;15.8;14.25;;;;;;;15.76;100;95293.59;;;;
2019/06/23 03:01:05;;;;;;;15.8;14.25;;;;;;;15.76;100;95293.59;;;;
2019/06/23 03:02:06;;;;;;;15.8;14.25;;;;;;;15.76;100;95293.59;;;;
2019/06/23 03:03:07;;;;;;;15.8;14.25;;;;;;;15.76;100;95293.59;;;;
2019/06/23 03:04:08;;;;;;;15.8;14.25;;;;;;;15.76;100;95293.59;;;;
2019/06/23 03:05:10;;;;;;;15.8;14.25;;;;;;;15.76;100;95293.59;;;;
2019/06/23 03:06:11;;;;;;;15.8;14.25;;;;;;;15.76;100;95293.59;;;;
2019/06/23 03:07:12;;;;;;;21.05;16.7;;;;;;;15.75;100;95306.53;;;;
2019/06/23 03:08:13;;;;;;;21.05;16.7;;;;;;;15.75;100;95306.53;;;;
2019/06/23 03:09:14;;;;;;;21.05;16.7;;;;;;;15.75;100;95306.53;;;;
2019/06/23 03:10:15;;;;;;;21.05;16.7;;;;;;;15.75;100;95306.53;;;;
2019/06/23 03:11:17;;;;;;;21.05;16.7;;;;;;;15.75;100;95306.53;;;;
2019/06/23 03:12:18;;;;;;;21.05;16.7;;;;;;;15.75;100;95306.53;;;;
2019/06/23 03:13:19;;;;;;;21.05;16.7;;;;;;;15.75;100;95306.53;;;;
2019/06/23 03:14:20;;;;;;;21.05;16.7;;;;;;;15.75;100;95306.53;;;;
2019/06/23 03:15:21;;;;;;;21.05;16.7;;;;;;;15.75;100;95306.53;;;;
2019/06/23 03:16:22;;;;;;;21.05;16.7;;;;;;;15.75;100;95306.53;;;;
2019/06/23 03:17:23;;;;;;;17.55;15.6;;;;;;;15.75;100;95303.69;;;;
2019/06/23 03:18:25;;;;;;;17.55;15.6;;;;;;;15.75;100;95303.69;;;;
2019/06/23 03:19:26;;;;;;;17.55;15.6;;;;;;;15.75;100;95303.69;;;;
2019/06/23 03:20:27;;;;;;;17.55;15.6;;;;;;;15.75;100;95303.69;;;;
2019/06/23 03:21:28;;;;;;;17.55;15.6;;;;;;;15.75;100;95303.69;;;;
2019/06/23 03:22:29;;;;;;;17.55;15.6;;;;;;;15.75;100;95303.69;;;;
2019/06/23 03:23:30;;;;;;;17.55;15.6;;;;;;;15.75;100;95303.69;;;;
2019/06/23 03:24:32;;;;;;;17.55;15.6;;;;;;;15.75;100;95303.69;;;;
2019/06/23 03:25:33;;;;;;;17.55;15.6;;;;;;;15.75;100;95303.69;;;;
2019/06/23 03:26:36;;;;;;;17.55;15.6;;;;;;;15.75;100;95303.69;;;;
2019/06/23 03:27:37;;;;;;;17.55;15.6;;;;;;;15.75;100;95303.69;;;;
2019/06/23 03:28:38;;;;;;;18;16.2;;;;;;;15.79;100;95301.67;;;;
2019/06/23 03:29:39;;;;;;;18;16.2;;;;;;;15.79;100;95301.67;;;;
2019/06/23 03:30:41;;;;;;;18;16.2;;;;;;;15.79;100;95301.67;;;;
2019/06/23 03:31:42;;;;;;;18;16.2;;;;;;;15.79;100;95301.67;;;;
2019/06/23 03:32:43;;;;;;;18;16.2;;;;;;;15.79;100;95301.67;;;;
2019/06/23 03:33:44;;;;;;;18;16.2;;;;;;;15.79;100;95301.67;;;;
2019/06/23 03:34:45;;;;;;;18;16.2;;;;;;;15.79;100;95301.67;;;;
2019/06/23 03:35:47;;;;;;;18;16.2;;;;;;;15.79;100;95301.67;;;;
2019/06/23 03:36:48;;;;;;;18;16.2;;;;;;;15.79;100;95301.67;;;;
2019/06/23 03:37:50;;;;;;;18;16.2;;;;;;;15.79;100;95301.67;;;;
2019/06/23 03:38:51;;;;;;;22.5;18.4;;;;;;;15.85;100;95304.66;;;;
2019/06/23 03:39:52;;;;;;;22.5;18.4;;;;;;;15.85;100;95304.66;;;;
2019/06/23 03:40:54;;;;;;;22.5;18.4;;;;;;;15.85;100;95304.66;;;;
2019/06/23 03:41:56;;;;;;;22.5;18.4;;;;;;;15.85;100;95304.66;;;;
2019/06/23 03:42:57;;;;;;;22.5;18.4;;;;;;;15.85;100;95304.66;;;;
2019/06/23 03:44:01;;;;;;;22.5;18.4;;;;;;;15.85;100;95304.66;;;;
2019/06/23 03:45:02;;;;;;;22.5;18.4;;;;;;;15.85;100;95304.66;;;;
2019/06/23 03:46:04;;;;;;;22.5;18.4;;;;;;;15.85;100;95304.66;;;;
2019/06/23 03:47:05;;;;;;;22.5;18.4;;;;;;;15.85;100;95304.66;;;;
2019/06/23 03:48:06;;;;;;;22.5;18.4;;;;;;;15.85;100;95304.66;;;;
2019/06/23 03:49:07;;;;;;;19.45;17.3;;;;;;;16.08;100;95306.09;;;;
2019/06/23 03:50:08;;;;;;;19.45;17.3;;;;;;;16.08;100;95306.09;;;;
2019/06/23 03:51:09;;;;;;;19.45;17.3;;;;;;;16.08;100;95306.09;;;;
2019/06/23 03:52:10;;;;;;;19.45;17.3;;;;;;;16.08;100;95306.09;;;;
2019/06/23 03:53:11;;;;;;;19.45;17.3;;;;;;;16.08;100;95306.09;;;;
2019/06/23 03:54:12;;;;;;;19.45;17.3;;;;;;;16.08;100;95306.09;;;;
2019/06/23 03:55:14;;;;;;;19.45;17.3;;;;;;;16.08;100;95306.09;;;;
2019/06/23 03:56:15;;;;;;;19.45;17.3;;;;;;;16.08;100;95306.09;;;;
2019/06/23 03:57:16;;;;;;;19.45;17.3;;;;;;;16.08;100;95306.09;;;;
2019/06/23 03:58:17;;;;;;;19.45;17.3;;;;;;;16.08;100;95306.09;;;;
2019/06/23 03:59:18;;;;;;;19.45;17.3;;;;;;;16.08;100;95306.09;;;;
2019/06/23 04:00:19;;;;;;;20.7;18.6;;;;;;;16.27;100;95306.26;;;;
2019/06/23 04:01:20;;;;;;;20.7;18.6;;;;;;;16.27;100;95306.26;;;;
2019/06/23 04:02:22;;;;;;;20.7;18.6;;;;;;;16.27;100;95306.26;;;;
2019/06/23 04:03:23;;;;;;;20.7;18.6;;;;;;;16.27;100;95306.26;;;;
2019/06/23 04:04:24;;;;;;;20.7;18.6;;;;;;;16.27;100;95306.26;;;;
2019/06/23 04:05:25;;;;;;;20.7;18.6;;;;;;;16.27;100;95306.26;;;;
2019/06/23 04:06:26;;;;;;;20.7;18.6;;;;;;;16.27;100;95306.26;;;;
2019/06/23 04:07:27;;;;;;;20.7;18.6;;;;;;;16.27;100;95306.26;;;;
2019/06/23 04:08:28;;;;;;;20.7;18.6;;;;;;;16.27;100;95306.26;;;;
2019/06/23 04:09:29;;;;;;;20.7;18.6;;;;;;;16.27;100;95306.26;;;;
2019/06/23 04:10:30;;;;;;;18.4;16.55;;;;;;;16.54;100;95311.49;;;;
2019/06/23 04:11:31;;;;;;;18.4;16.55;;;;;;;16.54;100;95311.49;;;;
2019/06/23 04:12:32;;;;;;;18.4;16.55;;;;;;;16.54;100;95311.49;;;;
2019/06/23 04:13:34;;;;;;;18.4;16.55;;;;;;;16.54;100;95311.49;;;;
2019/06/23 04:14:35;;;;;;;18.4;16.55;;;;;;;16.54;100;95311.49;;;;
2019/06/23 04:15:36;;;;;;;18.4;16.55;;;;;;;16.54;100;95311.49;;;;
2019/06/23 04:16:37;;;;;;;18.4;16.55;;;;;;;16.54;100;95311.49;;;;
2019/06/23 04:17:38;;;;;;;18.4;16.55;;;;;;;16.54;100;95311.49;;;;
2019/06/23 04:18:39;;;;;;;18.4;16.55;;;;;;;16.54;100;95311.49;;;;
2019/06/23 04:19:40;;;;;;;18.4;16.55;;;;;;;16.54;100;95311.49;;;;
2019/06/23 04:20:41;;;;;;;18.4;16.55;;;;;;;16.54;100;95311.49;;;;
2019/06/23 04:21:45;;;;;;;18.1;16.35;;;;;;;16.76;100;95327.03;;;;
2019/06/23 04:22:46;;;;;;;18.1;16.35;;;;;;;16.76;100;95327.03;;;;
2019/06/23 04:23:48;;;;;;;18.1;16.35;;;;;;;16.76;100;95327.03;;;;
2019/06/23 04:24:49;;;;;;;18.1;16.35;;;;;;;16.76;100;95327.03;;;;
2019/06/23 04:25:50;;;;;;;18.1;16.35;;;;;;;16.76;100;95327.03;;;;
2019/06/23 04:26:51;;;;;;;18.1;16.35;;;;;;;16.76;100;95327.03;;;;
2019/06/23 04:27:52;;;;;;;18.1;16.35;;;;;;;16.76;100;95327.03;;;;
2019/06/23 04:28:53;;;;;;;18.1;16.35;;;;;;;16.76;100;95327.03;;;;
2019/06/23 04:29:54;;;;;;;18.1;16.35;;;;;;;16.76;100;95327.03;;;;
2019/06/23 04:30:55;;;;;;;18.1;16.35;;;;;;;16.76;100;95327.03;;;;
2019/06/23 04:31:56;;;;;;;15.7;14.2;;;;;;;16.99;100;95334.24;;;;
2019/06/23 04:32:57;;;;;;;15.7;14.2;;;;;;;16.99;100;95334.24;;;;
2019/06/23 04:33:58;;;;;;;15.7;14.2;;;;;;;16.99;100;95334.24;;;;
2019/06/23 04:35:00;;;;;;;15.7;14.2;;;;;;;16.99;100;95334.24;;;;
2019/06/23 04:36:01;;;;;;;15.7;14.2;;;;;;;16.99;100;95334.24;;;;
2019/06/23 04:37:02;;;;;;;15.7;14.2;;;;;;;16.99;100;95334.24;;;;
2019/06/23 04:38:03;;;;;;;15.7;14.2;;;;;;;16.99;100;95334.24;;;;
2019/06/23 04:39:04;;;;;;;15.7;14.2;;;;;;;16.99;100;95334.24;;;;
2019/06/23 04:40:05;;;;;;;15.7;14.2;;;;;;;16.99;100;95334.24;;;;
2019/06/23 04:41:07;;;;;;;15.7;14.2;;;;;;;16.99;100;95334.24;;;;
2019/06/23 04:42:08;;;;;;;17;15.2;;;;;;;17.01;100;95345.58;;;;
2019/06/23 04:43:09;;;;;;;17;15.2;;;;;;;17.01;100;95345.58;;;;
2019/06/23 04:44:10;;;;;;;17;15.2;;;;;;;17.01;100;95345.58;;;;
2019/06/23 04:45:11;;;;;;;17;15.2;;;;;;;17.01;100;95345.58;;;;
2019/06/23 04:46:12;;;;;;;17;15.2;;;;;;;17.01;100;95345.58;;;;
2019/06/23 04:47:13;;;;;;;17;15.2;;;;;;;17.01;100;95345.58;;;;
2019/06/23 04:48:14;;;;;;;17;15.2;;;;;;;17.01;100;95345.58;;;;
2019/06/23 04:49:15;;;;;;;17;15.2;;;;;;;17.01;100;95345.58;;;;
2019/06/23 04:50:16;;;;;;;17;15.2;;;;;;;17.01;100;95345.58;;;;
2019/06/23 04:51:18;;;;;;;17;15.2;;;;;;;17.01;100;95345.58;;;;
2019/06/23 04:52:19;;;;;;;17;15.2;;;;;;;17.01;100;95345.58;;;;
2019/06/23 04:53:20;;;;;;;16.95;15.25;;;;;;;17.07;100;95352.23;;;;
2019/06/23 04:54:21;;;;;;;16.95;15.25;;;;;;;17.07;100;95352.23;;;;
2019/06/23 04:55:22;;;;;;;16.95;15.25;;;;;;;17.07;100;95352.23;;;;
2019/06/23 04:56:23;;;;;;;16.95;15.25;;;;;;;17.07;100;95352.23;;;;
2019/06/23 04:57:24;;;;;;;16.95;15.25;;;;;;;17.07;100;95352.23;;;;
2019/06/23 04:58:25;;;;;;;16.95;15.25;;;;;;;17.07;100;95352.23;;;;
2019/06/23 04:59:26;;;;;;;16.95;15.25;;;;;;;17.07;100;95352.23;;;;
2019/06/23 05:00:28;;;;;;;16.95;15.25;;;;;;;17.07;100;95352.23;;;;
2019/06/23 05:01:29;;;;;;;16.95;15.25;;;;;;;17.07;100;95352.23;;;;
2019/06/23 05:02:30;;;;;;;16.95;15.25;;;;;;;17.07;100;95352.23;;;;
2019/06/23 05:03:31;;;;;;;16.7;15.05;;;;;;;17.26;100;95364.23;;;;
2019/06/23 05:04:32;;;;;;;16.7;15.05;;;;;;;17.26;100;95364.23;;;;
2019/06/23 05:05:33;;;;;;;16.7;15.05;;;;;;;17.26;100;95364.23;;;;
2019/06/23 05:06:34;;;;;;;16.7;15.05;;;;;;;17.26;100;95364.23;;;;
2019/06/23 05:07:35;;;;;;;16.7;15.05;;;;;;;17.26;100;95364.23;;;;
2019/06/23 05:08:36;;;;;;;16.7;15.05;;;;;;;17.26;100;95364.23;;;;
2019/06/23 05:09:37;;;;;;;16.7;15.05;;;;;;;17.26;100;95364.23;;;;
2019/06/23 05:10:38;;;;;;;16.7;15.05;;;;;;;17.26;100;95364.23;;;;
2019/06/23 05:11:39;;;;;;;16.7;15.05;;;;;;;17.26;100;95364.23;;;;
2019/06/23 05:12:41;;;;;;;16.7;15.05;;;;;;;17.26;100;95364.23;;;;
2019/06/23 05:13:42;;;;;;;16.7;15.05;;;;;;;17.26;100;95364.23;;;;
2019/06/23 05:14:43;;;;;;;13;11.75;;;;;;;17.69;100;95378.64;;;;
2019/06/23 05:15:44;;;;;;;13;11.75;;;;;;;17.69;100;95378.64;;;;
2019/06/23 05:16:45;;;;;;;13;11.75;;;;;;;17.69;100;95378.64;;;;
2019/06/23 05:17:46;;;;;;;13;11.75;;;;;;;17.69;100;95378.64;;;;
2019/06/23 05:18:47;;;;;;;13;11.75;;;;;;;17.69;100;95378.64;;;;
2019/06/23 05:19:48;;;;;;;13;11.75;;;;;;;17.69;100;95378.64;;;;
2019/06/23 05:20:49;;;;;;;13;11.75;;;;;;;17.69;100;95378.64;;;;
2019/06/23 05:21:50;;;;;;;13;11.75;;;;;;;17.69;100;95378.64;;;;
2019/06/23 05:22:51;;;;;;;13;11.75;;;;;;;17.69;100;95378.64;;;;
2019/06/23 05:23:52;;;;;;;13;11.75;;;;;;;17.69;100;95378.64;;;;
2019/06/23 05:24:53;;;;;;;10.75;9.849999;;;;;;;18.06;100;95380.14;;;;
2019/06/23 05:25:55;;;;;;;10.75;9.849999;;;;;;;18.06;100;95380.14;;;;
2019/06/23 05:26:56;;;;;;;10.75;9.849999;;;;;;;18.06;100;95380.14;;;;
2019/06/23 05:27:57;;;;;;;10.75;9.849999;;;;;;;18.06;100;95380.14;;;;
2019/06/23 05:28:58;;;;;;;10.75;9.849999;;;;;;;18.06;100;95380.14;;;;
2019/06/23 05:29:59;;;;;;;10.75;9.849999;;;;;;;18.06;100;95380.14;;;;
2019/06/23 05:31:00;;;;;;;10.75;9.849999;;;;;;;18.06;100;95380.14;;;;
2019/06/23 05:32:01;;;;;;;10.75;9.849999;;;;;;;18.06;100;95380.14;;;;
2019/06/23 05:33:02;;;;;;;10.75;9.849999;;;;;;;18.06;100;95380.14;;;;
2019/06/23 05:34:03;;;;;;;10.75;9.849999;;;;;;;18.06;100;95380.14;;;;
2019/06/23 05:35:04;;;;;;;13.4;12.2;;;;;;;18.38;100;95381.36;;;;
2019/06/23 05:36:07;;;;;;;13.4;12.2;;;;;;;18.38;100;95381.36;;;;
2019/06/23 05:37:08;;;;;;;13.4;12.2;;;;;;;18.38;100;95381.36;;;;
2019/06/23 05:38:09;;;;;;;13.4;12.2;;;;;;;18.38;100;95381.36;;;;
2019/06/23 05:39:10;;;;;;;13.4;12.2;;;;;;;18.38;100;95381.36;;;;
2019/06/23 05:40:11;;;;;;;13.4;12.2;;;;;;;18.38;100;95381.36;;;;
2019/06/23 05:41:12;;;;;;;13.4;12.2;;;;;;;18.38;100;95381.36;;;;
2019/06/23 05:42:14;;;;;;;13.4;12.2;;;;;;;18.38;100;95381.36;;;;
2019/06/23 05:43:15;;;;;;;13.4;12.2;;;;;;;18.38;100;95381.36;;;;
2019/06/23 05:44:16;;;;;;;13.4;12.2;;;;;;;18.38;100;95381.36;;;;
2019/06/23 05:45:17;;;;;;;13.4;12.2;;;;;;;18.38;100;95381.36;;;;
2019/06/23 05:46:18;;;;;;;14.25;12.95;;;;;;;18.71;100;95388.4;;;;
2019/06/23 05:47:19;;;;;;;14.25;12.95;;;;;;;18.71;100;95388.4;;;;
2019/06/23 05:48:20;;;;;;;14.25;12.95;;;;;;;18.71;100;95388.4;;;;
2019/06/23 05:49:21;;;;;;;14.25;12.95;;;;;;;18.71;100;95388.4;;;;
2019/06/23 05:50:22;;;;;;;14.25;12.95;;;;;;;18.71;100;95388.4;;;;
2019/06/23 05:51:23;;;;;;;14.25;12.95;;;;;;;18.71;100;95388.4;;;;
2019/06/23 05:52:24;;;;;;;14.25;12.95;;;;;;;18.71;100;95388.4;;;;
2019/06/23 05:53:25;;;;;;;14.25;12.95;;;;;;;18.71;100;95388.4;;;;
2019/06/23 05:54:27;;;;;;;14.25;12.95;;;;;;;18.71;100;95388.4;;;;
2019/06/23 05:55:28;;;;;;;14.25;12.95;;;;;;;18.71;100;95388.4;;;;
2019/06/23 05:56:29;;;;;;;14.45;13.05;;;;;;;18.82;100;95395.98;;;;
2019/06/23 05:57:30;;;;;;;14.45;13.05;;;;;;;18.82;100;95395.98;;;;
2019/06/23 05:58:31;;;;;;;14.45;13.05;;;;;;;18.82;100;95395.98;;;;
2019/06/23 05:59:32;;;;;;;14.45;13.05;;;;;;;18.82;100;95395.98;;;;
2019/06/23 06:00:33;;;;;;;14.45;13.05;;;;;;;18.82;100;95395.98;;;;
2019/06/23 06:01:34;;;;;;;14.45;13.05;;;;;;;18.82;100;95395.98;;;;
2019/06/23 06:02:35;;;;;;;14.45;13.05;;;;;;;18.82;100;95395.98;;;;
2019/06/23 06:03:37;;;;;;;14.45;13.05;;;;;;;18.82;100;95395.98;;;;
2019/06/23 06:04:38;;;;;;;14.45;13.05;;;;;;;18.82;100;95395.98;;;;
2019/06/23 06:05:39;;;;;;;14.45;13.05;;;;;;;18.82;100;95395.98;;;;
2019/06/23 06:06:40;;;;;;;14.45;13.05;;;;;;;18.82;100;95395.98;;;;
2019/06/23 06:07:41;;;;;;;16;14.4;;;;;;;18.66;100;95413.61;;;;
2019/06/23 06:08:42;;;;;;;16;14.4;;;;;;;18.66;100;95413.61;;;;
2019/06/23 06:09:43;;;;;;;16;14.4;;;;;;;18.66;100;95413.61;;;;
2019/06/23 06:10:44;;;;;;;16;14.4;;;;;;;18.66;100;95413.61;;;;
2019/06/23 06:11:45;;;;;;;16;14.4;;;;;;;18.66;100;95413.61;;;;